sensor_id;sensor_type;location;lat;lon;timestamp;pressure;altitude;pressure_sealevel;temperature;humidity
16613;BME280;8419;52.358;9.752;2022-10-31T00:00:32;101296.00;;;25.66;37.74
16613;BME280;8419;52.358;9.752;2022-10-31T00:03:18;101301.00;;;25.59;37.83
16613;BME280;8419;52.358;9.752;2022-10-31T00:06:03;101298.00;;;25.54;37.90
16613;BME280;8419;52.358;9.752;2022-10-31T00:08:53;101299.00;;;25.50;37.95
16613;BME280;8419;52.358;9.752;2022-10-31T00:11:39;101296.00;;;25.45;38.03
16613;BME280;8419;52.358;9.752;2022-10-31T00:14:25;101297.00;;;25.49;37.94
16613;BME280;8419;52.358;9.752;2022-10-31T00:17:11;101300.00;;;25.46;37.98
16613;BME280;8419;52.358;9.752;2022-10-31T00:19:56;101305.00;;;25.45;37.99
16613;BME280;8419;52.358;9.752;2022-10-31T00:22:42;101300.00;;;25.51;37.87
16613;BME280;8419;52.358;9.752;2022-10-31T00:25:29;101308.00;;;25.44;37.95
16613;BME280;8419;52.358;9.752;2022-10-31T00:28:18;101304.00;;;25.54;37.81
16613;BME280;8419;52.358;9.752;2022-10-31T00:31:05;101310.00;;;25.50;37.88
16613;BME280;8419;52.358;9.752;2022-10-31T00:33:51;101312.00;;;25.50;37.92
16613;BME280;8419;52.358;9.752;2022-10-31T00:36:37;101318.00;;;25.53;37.87
16613;BME280;8419;52.358;9.752;2022-10-31T00:39:23;101322.00;;;25.49;37.97
16613;BME280;8419;52.358;9.752;2022-10-31T00:42:08;101323.00;;;25.50;37.95
16613;BME280;8419;52.358;9.752;2022-10-31T00:44:54;101337.00;;;25.47;38.06
16613;BME280;8419;52.358;9.752;2022-10-31T00:47:40;101330.00;;;25.47;38.09
16613;BME280;8419;52.358;9.752;2022-10-31T00:50:26;101322.00;;;25.49;38.12
16613;BME280;8419;52.358;9.752;2022-10-31T00:53:11;101324.00;;;25.44;38.24
16613;BME280;8419;52.358;9.752;2022-10-31T00:55:57;101339.00;;;25.50;38.17
16613;BME280;8419;52.358;9.752;2022-10-31T00:58:42;101340.00;;;25.53;38.22
16613;BME280;8419;52.358;9.752;2022-10-31T01:01:28;101335.00;;;25.52;38.38
16613;BME280;8419;52.358;9.752;2022-10-31T01:04:14;101342.00;;;25.55;38.50
16613;BME280;8419;52.358;9.752;2022-10-31T01:06:59;101335.00;;;25.47;38.74
16613;BME280;8419;52.358;9.752;2022-10-31T01:09:45;101345.00;;;25.39;38.97
16613;BME280;8419;52.358;9.752;2022-10-31T01:12:36;101346.00;;;25.51;38.92
16613;BME280;8419;52.358;9.752;2022-10-31T01:15:22;101350.00;;;25.40;39.19
16613;BME280;8419;52.358;9.752;2022-10-31T01:18:08;101349.00;;;25.49;39.22
16613;BME280;8419;52.358;9.752;2022-10-31T01:21:01;101357.00;;;25.54;39.30
16613;BME280;8419;52.358;9.752;2022-10-31T01:23:48;101348.00;;;25.58;39.41
16613;BME280;8419;52.358;9.752;2022-10-31T01:26:34;101342.00;;;25.51;39.52
16613;BME280;8419;52.358;9.752;2022-10-31T01:29:19;101346.00;;;25.54;39.73
16613;BME280;8419;52.358;9.752;2022-10-31T01:32:05;101347.00;;;25.74;39.42
16613;BME280;8419;52.358;9.752;2022-10-31T01:34:51;101347.00;;;25.75;39.45
16613;BME280;8419;52.358;9.752;2022-10-31T01:37:36;101357.00;;;25.65;39.79
16613;BME280;8419;52.358;9.752;2022-10-31T01:40:23;101357.00;;;25.41;40.33
16613;BME280;8419;52.358;9.752;2022-10-31T01:43:12;101354.00;;;25.33;40.65
16613;BME280;8419;52.358;9.752;2022-10-31T01:45:58;101353.00;;;25.32;40.81
16613;BME280;8419;52.358;9.752;2022-10-31T01:48:44;101357.00;;;25.38;40.82
16613;BME280;8419;52.358;9.752;2022-10-31T01:51:32;101362.00;;;25.31;41.01
16613;BME280;8419;52.358;9.752;2022-10-31T01:54:22;101361.00;;;25.30;41.23
16613;BME280;8419;52.358;9.752;2022-10-31T01:57:11;101370.00;;;25.32;41.27
16613;BME280;8419;52.358;9.752;2022-10-31T02:00:00;101364.00;;;25.24;41.59
16613;BME280;8419;52.358;9.752;2022-10-31T02:02:49;101372.00;;;25.24;41.64
16613;BME280;8419;52.358;9.752;2022-10-31T02:05:35;101367.00;;;25.29;41.57
16613;BME280;8419;52.358;9.752;2022-10-31T02:08:26;101371.00;;;25.31;41.69
16613;BME280;8419;52.358;9.752;2022-10-31T02:11:12;101376.00;;;25.22;41.86
16613;BME280;8419;52.358;9.752;2022-10-31T02:13:59;101384.00;;;25.26;41.75
16613;BME280;8419;52.358;9.752;2022-10-31T02:16:46;101377.00;;;25.21;42.04
16613;BME280;8419;52.358;9.752;2022-10-31T02:19:36;101379.00;;;25.22;42.04
16613;BME280;8419;52.358;9.752;2022-10-31T02:22:29;101378.00;;;25.15;42.24
16613;BME280;8419;52.358;9.752;2022-10-31T02:25:38;101379.00;;;25.14;42.22
16613;BME280;8419;52.358;9.752;2022-10-31T02:28:40;101384.00;;;25.19;42.16
16613;BME280;8419;52.358;9.752;2022-10-31T02:31:37;101378.00;;;25.10;42.32
16613;BME280;8419;52.358;9.752;2022-10-31T02:34:32;101374.00;;;25.08;42.38
16613;BME280;8419;52.358;9.752;2022-10-31T02:37:25;101372.00;;;25.05;42.49
16613;BME280;8419;52.358;9.752;2022-10-31T02:40:15;101383.00;;;25.05;42.38
16613;BME280;8419;52.358;9.752;2022-10-31T02:43:08;101373.00;;;25.06;42.37
16613;BME280;8419;52.358;9.752;2022-10-31T02:46:01;101371.00;;;24.98;42.49
16613;BME280;8419;52.358;9.752;2022-10-31T02:48:48;101387.00;;;24.94;42.60
16613;BME280;8419;52.358;9.752;2022-10-31T02:51:36;101378.00;;;24.92;42.62
16613;BME280;8419;52.358;9.752;2022-10-31T02:54:24;101382.00;;;24.91;42.67
16613;BME280;8419;52.358;9.752;2022-10-31T02:57:11;101377.00;;;24.88;42.71
16613;BME280;8419;52.358;9.752;2022-10-31T03:00:02;101378.00;;;24.89;42.71
16613;BME280;8419;52.358;9.752;2022-10-31T03:02:57;101375.00;;;24.81;42.87
16613;BME280;8419;52.358;9.752;2022-10-31T03:05:53;101372.00;;;24.76;42.99
16613;BME280;8419;52.358;9.752;2022-10-31T03:08:44;101378.00;;;24.73;42.99
16613;BME280;8419;52.358;9.752;2022-10-31T03:11:38;101383.00;;;24.71;42.98
16613;BME280;8419;52.358;9.752;2022-10-31T03:14:34;101378.00;;;24.70;42.91
16613;BME280;8419;52.358;9.752;2022-10-31T03:17:26;101387.00;;;24.62;43.01
16613;BME280;8419;52.358;9.752;2022-10-31T03:20:13;101390.00;;;24.61;43.01
16613;BME280;8419;52.358;9.752;2022-10-31T03:23:01;101390.00;;;24.58;43.04
16613;BME280;8419;52.358;9.752;2022-10-31T03:25:48;101397.00;;;24.62;42.90
16613;BME280;8419;52.358;9.752;2022-10-31T03:28:38;101398.00;;;24.61;42.90
16613;BME280;8419;52.358;9.752;2022-10-31T03:31:30;101395.00;;;24.61;42.88
16613;BME280;8419;52.358;9.752;2022-10-31T03:34:19;101399.00;;;24.62;42.82
16613;BME280;8419;52.358;9.752;2022-10-31T03:37:07;101405.00;;;24.55;42.89
16613;BME280;8419;52.358;9.752;2022-10-31T03:39:55;101404.00;;;24.54;42.87
16613;BME280;8419;52.358;9.752;2022-10-31T03:42:46;101408.00;;;24.55;42.79
16613;BME280;8419;52.358;9.752;2022-10-31T03:45:39;101407.00;;;24.45;42.97
16613;BME280;8419;52.358;9.752;2022-10-31T03:48:26;101405.00;;;24.44;42.92
16613;BME280;8419;52.358;9.752;2022-10-31T03:51:16;101409.00;;;24.42;42.87
16613;BME280;8419;52.358;9.752;2022-10-31T03:54:09;101412.00;;;24.47;42.80
16613;BME280;8419;52.358;9.752;2022-10-31T03:57:05;101411.00;;;24.46;42.75
16613;BME280;8419;52.358;9.752;2022-10-31T03:59:55;101412.00;;;24.45;42.76
16613;BME280;8419;52.358;9.752;2022-10-31T04:02:49;101414.00;;;24.43;42.76
16613;BME280;8419;52.358;9.752;2022-10-31T04:05:37;101409.00;;;24.37;42.82
16613;BME280;8419;52.358;9.752;2022-10-31T04:08:26;101422.00;;;24.35;42.82
16613;BME280;8419;52.358;9.752;2022-10-31T04:11:14;101430.00;;;24.27;42.96
16613;BME280;8419;52.358;9.752;2022-10-31T04:14:02;101434.00;;;24.28;42.90
16613;BME280;8419;52.358;9.752;2022-10-31T04:16:50;101437.00;;;24.23;42.96
16613;BME280;8419;52.358;9.752;2022-10-31T04:19:35;101436.00;;;24.08;43.25
16613;BME280;8419;52.358;9.752;2022-10-31T04:22:21;101434.00;;;23.91;43.52
16613;BME280;8419;52.358;9.752;2022-10-31T04:25:09;101443.00;;;24.07;43.21
16613;BME280;8419;52.358;9.752;2022-10-31T04:27:54;101438.00;;;24.01;43.28
16613;BME280;8419;52.358;9.752;2022-10-31T04:30:40;101448.00;;;24.07;43.16
16613;BME280;8419;52.358;9.752;2022-10-31T04:33:26;101449.00;;;23.98;43.29
16613;BME280;8419;52.358;9.752;2022-10-31T04:36:12;101451.00;;;23.94;43.39
16613;BME280;8419;52.358;9.752;2022-10-31T04:38:58;101459.00;;;23.88;43.51
16613;BME280;8419;52.358;9.752;2022-10-31T04:41:43;101445.00;;;23.88;43.51
16613;BME280;8419;52.358;9.752;2022-10-31T04:44:29;101449.00;;;23.84;43.58
16613;BME280;8419;52.358;9.752;2022-10-31T04:47:15;101446.00;;;23.79;43.71
16613;BME280;8419;52.358;9.752;2022-10-31T04:50:01;101447.00;;;23.82;43.63
16613;BME280;8419;52.358;9.752;2022-10-31T04:52:46;101440.00;;;23.83;43.58
16613;BME280;8419;52.358;9.752;2022-10-31T04:55:32;101444.00;;;23.85;43.52
16613;BME280;8419;52.358;9.752;2022-10-31T04:58:18;101452.00;;;23.88;43.38
16613;BME280;8419;52.358;9.752;2022-10-31T05:01:03;101455.00;;;23.81;43.55
16613;BME280;8419;52.358;9.752;2022-10-31T05:03:49;101439.00;;;23.78;43.55
16613;BME280;8419;52.358;9.752;2022-10-31T05:06:34;101444.00;;;23.74;43.59
16613;BME280;8419;52.358;9.752;2022-10-31T05:09:20;101438.00;;;23.74;43.56
16613;BME280;8419;52.358;9.752;2022-10-31T05:12:05;101440.00;;;23.81;43.39
16613;BME280;8419;52.358;9.752;2022-10-31T05:14:51;101442.00;;;23.79;43.34
16613;BME280;8419;52.358;9.752;2022-10-31T05:17:36;101427.00;;;23.72;43.52
16613;BME280;8419;52.358;9.752;2022-10-31T05:20:25;101421.00;;;23.67;43.56
16613;BME280;8419;52.358;9.752;2022-10-31T05:23:10;101429.00;;;23.62;43.62
16613;BME280;8419;52.358;9.752;2022-10-31T05:25:56;101426.00;;;23.60;43.67
16613;BME280;8419;52.358;9.752;2022-10-31T05:28:42;101429.00;;;23.62;43.56
16613;BME280;8419;52.358;9.752;2022-10-31T05:31:27;101441.00;;;23.58;43.58
16613;BME280;8419;52.358;9.752;2022-10-31T05:34:13;101440.00;;;23.54;43.73
16613;BME280;8419;52.358;9.752;2022-10-31T05:36:58;101438.00;;;23.48;43.76
16613;BME280;8419;52.358;9.752;2022-10-31T05:39:44;101433.00;;;23.45;43.76
16613;BME280;8419;52.358;9.752;2022-10-31T05:42:29;101442.00;;;23.47;43.71
16613;BME280;8419;52.358;9.752;2022-10-31T05:45:17;101425.00;;;23.41;43.80
16613;BME280;8419;52.358;9.752;2022-10-31T05:48:05;101437.00;;;23.38;43.82
16613;BME280;8419;52.358;9.752;2022-10-31T05:50:50;101436.00;;;23.29;43.97
16613;BME280;8419;52.358;9.752;2022-10-31T05:53:37;101442.00;;;23.25;43.98
16613;BME280;8419;52.358;9.752;2022-10-31T05:56:23;101448.00;;;23.28;43.82
16613;BME280;8419;52.358;9.752;2022-10-31T05:59:08;101455.00;;;23.20;43.95
16613;BME280;8419;52.358;9.752;2022-10-31T06:01:54;101450.00;;;23.26;43.83
16613;BME280;8419;52.358;9.752;2022-10-31T06:04:40;101448.00;;;23.20;43.89
16613;BME280;8419;52.358;9.752;2022-10-31T06:07:25;101445.00;;;23.20;43.90
16613;BME280;8419;52.358;9.752;2022-10-31T06:10:11;101435.00;;;23.18;43.95
16613;BME280;8419;52.358;9.752;2022-10-31T06:12:56;101448.00;;;23.20;43.92
16613;BME280;8419;52.358;9.752;2022-10-31T06:15:42;101448.00;;;23.17;44.01
16613;BME280;8419;52.358;9.752;2022-10-31T06:18:28;101442.00;;;23.22;43.89
16613;BME280;8419;52.358;9.752;2022-10-31T06:21:13;101444.00;;;23.13;44.06
16613;BME280;8419;52.358;9.752;2022-10-31T06:23:59;101442.00;;;23.12;44.10
16613;BME280;8419;52.358;9.752;2022-10-31T06:26:45;101440.00;;;23.25;43.84
16613;BME280;8419;52.358;9.752;2022-10-31T06:29:30;101446.00;;;23.24;43.80
16613;BME280;8419;52.358;9.752;2022-10-31T06:32:17;101444.00;;;23.24;43.80
16613;BME280;8419;52.358;9.752;2022-10-31T06:35:03;101447.00;;;23.18;43.92
16613;BME280;8419;52.358;9.752;2022-10-31T06:37:53;101448.00;;;23.22;43.82
16613;BME280;8419;52.358;9.752;2022-10-31T06:40:38;101451.00;;;23.30;43.72
16613;BME280;8419;52.358;9.752;2022-10-31T06:43:24;101455.00;;;23.20;43.90
16613;BME280;8419;52.358;9.752;2022-10-31T06:46:10;101454.00;;;23.21;43.91
16613;BME280;8419;52.358;9.752;2022-10-31T06:48:55;101462.00;;;23.24;43.86
16613;BME280;8419;52.358;9.752;2022-10-31T06:51:41;101461.00;;;23.23;43.86
16613;BME280;8419;52.358;9.752;2022-10-31T06:54:27;101462.00;;;23.21;43.93
16613;BME280;8419;52.358;9.752;2022-10-31T06:57:12;101472.00;;;23.19;44.00
16613;BME280;8419;52.358;9.752;2022-10-31T06:59:58;101484.00;;;23.20;44.01
16613;BME280;8419;52.358;9.752;2022-10-31T07:02:44;101475.00;;;23.22;43.96
16613;BME280;8419;52.358;9.752;2022-10-31T07:05:37;101483.00;;;23.22;43.93
16613;BME280;8419;52.358;9.752;2022-10-31T07:08:23;101485.00;;;23.18;44.00
16613;BME280;8419;52.358;9.752;2022-10-31T07:11:09;101489.00;;;23.22;43.95
16613;BME280;8419;52.358;9.752;2022-10-31T07:13:55;101497.00;;;23.29;43.81
16613;BME280;8419;52.358;9.752;2022-10-31T07:16:41;101496.00;;;23.41;43.55
16613;BME280;8419;52.358;9.752;2022-10-31T07:19:26;101505.00;;;23.42;43.58
16613;BME280;8419;52.358;9.752;2022-10-31T07:22:12;101501.00;;;23.47;43.48
16613;BME280;8419;52.358;9.752;2022-10-31T07:24:58;101503.00;;;23.48;43.39
16613;BME280;8419;52.358;9.752;2022-10-31T07:27:43;101500.00;;;23.48;43.35
16613;BME280;8419;52.358;9.752;2022-10-31T07:30:29;101506.00;;;23.50;43.26
16613;BME280;8419;52.358;9.752;2022-10-31T07:33:15;101500.00;;;23.53;43.23
16613;BME280;8419;52.358;9.752;2022-10-31T07:36:06;101505.00;;;23.54;43.18
16613;BME280;8419;52.358;9.752;2022-10-31T07:38:52;101505.00;;;23.54;43.24
16613;BME280;8419;52.358;9.752;2022-10-31T07:41:37;101500.00;;;23.53;43.21
16613;BME280;8419;52.358;9.752;2022-10-31T07:44:23;101505.00;;;23.59;43.10
16613;BME280;8419;52.358;9.752;2022-10-31T07:47:09;101504.00;;;23.57;43.16
16613;BME280;8419;52.358;9.752;2022-10-31T07:49:54;101508.00;;;23.61;43.11
16613;BME280;8419;52.358;9.752;2022-10-31T07:52:40;101512.00;;;23.66;43.00
16613;BME280;8419;52.358;9.752;2022-10-31T07:55:26;101514.00;;;23.72;42.91
16613;BME280;8419;52.358;9.752;2022-10-31T07:58:13;101508.00;;;23.73;42.81
16613;BME280;8419;52.358;9.752;2022-10-31T08:00:58;101514.00;;;23.71;42.86
16613;BME280;8419;52.358;9.752;2022-10-31T08:03:44;101512.00;;;23.71;42.81
16613;BME280;8419;52.358;9.752;2022-10-31T08:06:29;101509.00;;;23.72;42.76
16613;BME280;8419;52.358;9.752;2022-10-31T08:09:15;101509.00;;;23.69;42.78
16613;BME280;8419;52.358;9.752;2022-10-31T08:12:01;101506.00;;;23.71;42.79
16613;BME280;8419;52.358;9.752;2022-10-31T08:14:47;101500.00;;;23.72;42.76
16613;BME280;8419;52.358;9.752;2022-10-31T08:17:35;101491.00;;;23.76;42.72
16613;BME280;8419;52.358;9.752;2022-10-31T08:20:21;101507.00;;;23.86;42.58
16613;BME280;8419;52.358;9.752;2022-10-31T08:23:07;101501.00;;;23.95;42.51
16613;BME280;8419;52.358;9.752;2022-10-31T08:25:54;101509.00;;;24.00;42.44
16613;BME280;8419;52.358;9.752;2022-10-31T08:28:40;101499.00;;;24.04;42.43
16613;BME280;8419;52.358;9.752;2022-10-31T08:31:27;101502.00;;;24.13;42.32
16613;BME280;8419;52.358;9.752;2022-10-31T08:34:13;101506.00;;;24.24;42.23
16613;BME280;8419;52.358;9.752;2022-10-31T08:36:58;101504.00;;;24.30;42.11
16613;BME280;8419;52.358;9.752;2022-10-31T08:39:44;101496.00;;;24.45;41.91
16613;BME280;8419;52.358;9.752;2022-10-31T08:42:30;101494.00;;;24.55;41.84
16613;BME280;8419;52.358;9.752;2022-10-31T08:45:15;101494.00;;;24.65;41.76
16613;BME280;8419;52.358;9.752;2022-10-31T08:48:02;101476.00;;;24.73;41.71
16613;BME280;8419;52.358;9.752;2022-10-31T08:50:48;101479.00;;;24.88;41.57
16613;BME280;8419;52.358;9.752;2022-10-31T08:53:34;101482.00;;;25.00;41.48
16613;BME280;8419;52.358;9.752;2022-10-31T08:56:19;101482.00;;;25.14;41.33
16613;BME280;8419;52.358;9.752;2022-10-31T08:59:07;101484.00;;;25.30;41.15
16613;BME280;8419;52.358;9.752;2022-10-31T09:01:53;101479.00;;;25.43;41.04
16613;BME280;8419;52.358;9.752;2022-10-31T09:04:39;101471.00;;;25.64;40.77
16613;BME280;8419;52.358;9.752;2022-10-31T09:07:25;101468.00;;;25.83;40.59
16613;BME280;8419;52.358;9.752;2022-10-31T09:10:11;101468.00;;;26.04;40.37
16613;BME280;8419;52.358;9.752;2022-10-31T09:12:57;101465.00;;;26.26;40.15
16613;BME280;8419;52.358;9.752;2022-10-31T09:15:45;101463.00;;;26.46;39.85
16613;BME280;8419;52.358;9.752;2022-10-31T09:18:32;101475.00;;;26.60;39.71
16613;BME280;8419;52.358;9.752;2022-10-31T09:21:18;101466.00;;;26.74;39.52
16613;BME280;8419;52.358;9.752;2022-10-31T09:24:04;101475.00;;;26.89;39.38
16613;BME280;8419;52.358;9.752;2022-10-31T09:26:49;101471.00;;;27.00;39.17
16613;BME280;8419;52.358;9.752;2022-10-31T09:29:35;101478.00;;;27.04;39.12
16613;BME280;8419;52.358;9.752;2022-10-31T09:32:21;101481.00;;;27.09;39.06
16613;BME280;8419;52.358;9.752;2022-10-31T09:35:08;101479.00;;;27.24;38.86
16613;BME280;8419;52.358;9.752;2022-10-31T09:37:55;101479.00;;;27.33;38.69
16613;BME280;8419;52.358;9.752;2022-10-31T09:40:42;101480.00;;;27.47;38.54
16613;BME280;8419;52.358;9.752;2022-10-31T09:43:35;101475.00;;;27.62;38.29
16613;BME280;8419;52.358;9.752;2022-10-31T09:46:29;101474.00;;;27.72;38.09
16613;BME280;8419;52.358;9.752;2022-10-31T09:49:31;101476.00;;;27.72;38.09
16613;BME280;8419;52.358;9.752;2022-10-31T09:52:22;101466.00;;;27.81;38.02
16613;BME280;8419;52.358;9.752;2022-10-31T09:55:15;101467.00;;;27.81;37.90
16613;BME280;8419;52.358;9.752;2022-10-31T09:58:02;101468.00;;;27.82;37.86
16613;BME280;8419;52.358;9.752;2022-10-31T10:00:48;101471.00;;;27.77;37.90
16613;BME280;8419;52.358;9.752;2022-10-31T10:03:38;101466.00;;;27.81;37.84
16613;BME280;8419;52.358;9.752;2022-10-31T10:06:29;101466.00;;;27.84;37.75
16613;BME280;8419;52.358;9.752;2022-10-31T10:09:17;101459.00;;;27.85;37.75
16613;BME280;8419;52.358;9.752;2022-10-31T10:12:13;101458.00;;;27.86;37.75
16613;BME280;8419;52.358;9.752;2022-10-31T10:15:20;101458.00;;;27.92;37.63
16613;BME280;8419;52.358;9.752;2022-10-31T10:18:21;101462.00;;;28.04;37.41
16613;BME280;8419;52.358;9.752;2022-10-31T10:21:19;101453.00;;;28.13;37.27
16613;BME280;8419;52.358;9.752;2022-10-31T10:24:20;101456.00;;;28.10;37.29
16613;BME280;8419;52.358;9.752;2022-10-31T10:27:17;101445.00;;;28.15;37.18
16613;BME280;8419;52.358;9.752;2022-10-31T10:30:12;101449.00;;;28.26;37.03
16613;BME280;8419;52.358;9.752;2022-10-31T10:33:01;101443.00;;;28.29;36.99
16613;BME280;8419;52.358;9.752;2022-10-31T10:35:50;101445.00;;;28.35;36.82
16613;BME280;8419;52.358;9.752;2022-10-31T10:38:43;101441.00;;;28.39;36.71
16613;BME280;8419;52.358;9.752;2022-10-31T10:41:33;101450.00;;;28.38;36.76
16613;BME280;8419;52.358;9.752;2022-10-31T10:44:18;101447.00;;;28.42;36.71
16613;BME280;8419;52.358;9.752;2022-10-31T10:47:06;101440.00;;;28.53;36.55
16613;BME280;8419;52.358;9.752;2022-10-31T10:50:15;101434.00;;;28.52;36.58
16613;BME280;8419;52.358;9.752;2022-10-31T10:53:12;101433.00;;;28.62;36.49
16613;BME280;8419;52.358;9.752;2022-10-31T10:56:14;101433.00;;;28.65;36.41
16613;BME280;8419;52.358;9.752;2022-10-31T10:59:03;101438.00;;;28.61;36.48
16613;BME280;8419;52.358;9.752;2022-10-31T11:01:51;101439.00;;;28.68;36.37
16613;BME280;8419;52.358;9.752;2022-10-31T11:04:40;101426.00;;;28.72;36.30
16613;BME280;8419;52.358;9.752;2022-10-31T11:07:36;101422.00;;;28.78;36.19
16613;BME280;8419;52.358;9.752;2022-10-31T11:10:22;101419.00;;;28.86;36.10
16613;BME280;8419;52.358;9.752;2022-10-31T11:13:21;101419.00;;;28.90;36.01
16613;BME280;8419;52.358;9.752;2022-10-31T11:16:10;101422.00;;;29.01;35.83
16613;BME280;8419;52.358;9.752;2022-10-31T11:19:08;101412.00;;;29.03;35.69
16613;BME280;8419;52.358;9.752;2022-10-31T11:22:07;101405.00;;;29.11;35.61
16613;BME280;8419;52.358;9.752;2022-10-31T11:24:52;101399.00;;;29.10;35.57
16613;BME280;8419;52.358;9.752;2022-10-31T11:27:38;101398.00;;;29.19;35.48
16613;BME280;8419;52.358;9.752;2022-10-31T11:30:23;101393.00;;;29.35;35.27
16613;BME280;8419;52.358;9.752;2022-10-31T11:33:17;101399.00;;;29.59;34.92
16613;BME280;8419;52.358;9.752;2022-10-31T11:36:15;101392.00;;;29.77;34.69
16613;BME280;8419;52.358;9.752;2022-10-31T11:39:03;101388.00;;;30.01;34.44
16613;BME280;8419;52.358;9.752;2022-10-31T11:41:51;101383.00;;;30.18;34.19
16613;BME280;8419;52.358;9.752;2022-10-31T11:44:41;101387.00;;;30.51;33.77
16613;BME280;8419;52.358;9.752;2022-10-31T11:47:30;101381.00;;;30.72;33.52
16613;BME280;8419;52.358;9.752;2022-10-31T11:50:21;101374.00;;;31.02;33.18
16613;BME280;8419;52.358;9.752;2022-10-31T11:53:15;101370.00;;;31.27;32.90
16613;BME280;8419;52.358;9.752;2022-10-31T11:56:10;101365.00;;;31.47;32.72
16613;BME280;8419;52.358;9.752;2022-10-31T11:59:00;101365.00;;;31.60;32.52
16613;BME280;8419;52.358;9.752;2022-10-31T12:01:51;101367.00;;;31.78;32.26
16613;BME280;8419;52.358;9.752;2022-10-31T12:04:42;101361.00;;;31.82;32.04
16613;BME280;8419;52.358;9.752;2022-10-31T12:07:30;101371.00;;;31.70;32.07
16613;BME280;8419;52.358;9.752;2022-10-31T12:10:16;101358.00;;;31.81;31.87
16613;BME280;8419;52.358;9.752;2022-10-31T12:13:12;101359.00;;;31.72;31.92
16613;BME280;8419;52.358;9.752;2022-10-31T12:16:09;101344.00;;;31.58;31.97
16613;BME280;8419;52.358;9.752;2022-10-31T12:19:00;101349.00;;;31.41;32.13
16613;BME280;8419;52.358;9.752;2022-10-31T12:21:57;101345.00;;;31.29;32.22
16613;BME280;8419;52.358;9.752;2022-10-31T12:28:36;101341.00;;;31.07;32.37
16613;BME280;8419;52.358;9.752;2022-10-31T12:31:40;101332.00;;;30.98;32.47
16613;BME280;8419;52.358;9.752;2022-10-31T12:34:45;101332.00;;;30.78;32.67
16613;BME280;8419;52.358;9.752;2022-10-31T12:37:48;101327.00;;;30.76;32.71
16613;BME280;8419;52.358;9.752;2022-10-31T12:40:47;101331.00;;;30.68;32.83
16613;BME280;8419;52.358;9.752;2022-10-31T12:43:45;101324.00;;;30.78;32.71
16613;BME280;8419;52.358;9.752;2022-10-31T12:46:45;101325.00;;;30.79;32.71
16613;BME280;8419;52.358;9.752;2022-10-31T12:49:54;101315.00;;;30.78;32.70
16613;BME280;8419;52.358;9.752;2022-10-31T12:52:54;101310.00;;;30.92;32.57
16613;BME280;8419;52.358;9.752;2022-10-31T12:55:51;101305.00;;;31.00;32.49
16613;BME280;8419;52.358;9.752;2022-10-31T12:58:45;101305.00;;;31.12;32.30
16613;BME280;8419;52.358;9.752;2022-10-31T13:01:35;101299.00;;;31.04;32.31
16613;BME280;8419;52.358;9.752;2022-10-31T13:04:35;101299.00;;;30.92;32.39
16613;BME280;8419;52.358;9.752;2022-10-31T13:07:25;101292.00;;;30.69;32.61
16613;BME280;8419;52.358;9.752;2022-10-31T13:10:18;101291.00;;;30.50;32.82
16613;BME280;8419;52.358;9.752;2022-10-31T13:13:11;101276.00;;;30.33;33.07
16613;BME280;8419;52.358;9.752;2022-10-31T13:16:00;101271.00;;;30.29;33.14
16613;BME280;8419;52.358;9.752;2022-10-31T13:18:51;101280.00;;;30.26;33.19
16613;BME280;8419;52.358;9.752;2022-10-31T13:21:52;101267.00;;;30.20;33.31
16613;BME280;8419;52.358;9.752;2022-10-31T13:24:41;101259.00;;;30.20;33.32
16613;BME280;8419;52.358;9.752;2022-10-31T13:27:33;101246.00;;;30.20;33.35
16613;BME280;8419;52.358;9.752;2022-10-31T13:30:23;101249.00;;;30.16;33.41
16613;BME280;8419;52.358;9.752;2022-10-31T13:33:14;101250.00;;;30.13;33.47
16613;BME280;8419;52.358;9.752;2022-10-31T13:36:12;101241.00;;;30.07;33.50
16613;BME280;8419;52.358;9.752;2022-10-31T13:39:06;101243.00;;;29.96;33.63
16613;BME280;8419;52.358;9.752;2022-10-31T13:42:11;101231.00;;;29.82;33.78
16613;BME280;8419;52.358;9.752;2022-10-31T13:45:12;101235.00;;;29.84;33.75
16613;BME280;8419;52.358;9.752;2022-10-31T13:48:00;101225.00;;;29.68;33.89
16613;BME280;8419;52.358;9.752;2022-10-31T13:50:57;101217.00;;;29.57;34.04
16613;BME280;8419;52.358;9.752;2022-10-31T13:53:57;101217.00;;;29.56;34.06
16613;BME280;8419;52.358;9.752;2022-10-31T13:56:48;101210.00;;;29.55;34.10
16613;BME280;8419;52.358;9.752;2022-10-31T13:59:37;101201.00;;;29.51;34.22
16613;BME280;8419;52.358;9.752;2022-10-31T14:02:26;101195.00;;;29.47;34.33
16613;BME280;8419;52.358;9.752;2022-10-31T14:05:22;101198.00;;;29.52;34.37
16613;BME280;8419;52.358;9.752;2022-10-31T14:08:20;101197.00;;;29.50;34.50
16613;BME280;8419;52.358;9.752;2022-10-31T14:11:07;101191.00;;;29.42;34.61
16613;BME280;8419;52.358;9.752;2022-10-31T14:13:55;101194.00;;;29.28;34.83
16613;BME280;8419;52.358;9.752;2022-10-31T14:16:43;101190.00;;;29.18;35.04
16613;BME280;8419;52.358;9.752;2022-10-31T14:19:29;101188.00;;;29.07;35.26
16613;BME280;8419;52.358;9.752;2022-10-31T14:22:20;101184.00;;;28.98;35.36
16613;BME280;8419;52.358;9.752;2022-10-31T14:25:26;101186.00;;;28.91;35.54
16613;BME280;8419;52.358;9.752;2022-10-31T14:28:21;101182.00;;;28.90;35.50
16613;BME280;8419;52.358;9.752;2022-10-31T14:31:29;101177.00;;;28.76;35.68
16613;BME280;8419;52.358;9.752;2022-10-31T14:34:23;101176.00;;;28.56;35.99
16613;BME280;8419;52.358;9.752;2022-10-31T14:37:18;101177.00;;;28.40;36.27
16613;BME280;8419;52.358;9.752;2022-10-31T14:40:17;101184.00;;;28.26;36.51
16613;BME280;8419;52.358;9.752;2022-10-31T14:43:26;101179.00;;;28.22;36.62
16613;BME280;8419;52.358;9.752;2022-10-31T14:46:21;101182.00;;;28.14;36.73
16613;BME280;8419;52.358;9.752;2022-10-31T14:49:27;101186.00;;;28.10;36.83
16613;BME280;8419;52.358;9.752;2022-10-31T14:52:19;101177.00;;;28.01;37.00
16613;BME280;8419;52.358;9.752;2022-10-31T14:55:10;101171.00;;;27.92;37.14
16613;BME280;8419;52.358;9.752;2022-10-31T14:58:00;101172.00;;;27.90;37.25
16613;BME280;8419;52.358;9.752;2022-10-31T15:00:46;101160.00;;;27.86;37.32